Barkald — V7IM6 — position and weather

sailwx.info

Track history (hours):
 
Tides and Currents Weather Stations Pressure Air Temp Water Temp Dewpoint Dewpoint Depression Visibility Wind Speed Wind Dir Waves Ship Positions

Barkald

Last reported at 2014-Nov-16 20:12 UTC. Time now 2014-Nov-24 15:18 UTC.
Position N 38°30' W 071°27'.

Length 189 m; draft 6.6 m.

MMSI: 538002409.

Date/timePositionNaut miles runAvg speedWind from/ knotsBaromVisibWave heightAir tempDewpointWater temp
2014-Nov-16 20:12N 38°30' W 071°27'225 8.7
2014-Nov-15 18:19N 37°53' W 076°09'911.7
2014-Nov-15 17:33N 38°02' W 076°13'4711.7
2014-Nov-15 13:33N 38°47' W 076°25'1212.2
2014-Nov-15 12:33N 38°59' W 076°23'1110.8
2014-Nov-15 11:33N 39°10' W 076°25'9 8.5
2014-Nov-15 10:33N 39°15' W 076°34'0 0.2
2014-Nov-15 09:33N 39°16' W 076°34'0 0.0
2014-Nov-15 08:33N 39°16' W 076°34'0 0.0
2014-Nov-15 07:33N 39°16' W 076°34'0 0.0
2014-Nov-15 06:33N 39°16' W 076°34'0 0.0
2014-Nov-15 05:33N 39°16' W 076°34'0 0.0
2014-Nov-15 04:33N 39°16' W 076°34'0 0.0
2014-Nov-15 03:33N 39°16' W 076°34'0 0.0
2014-Nov-15 02:30N 39°16' W 076°34'0 0.0
2014-Nov-15 01:33N 39°16' W 076°34'0 0.0
2014-Nov-15 00:34N 39°16' W 076°34'0 0.0
2014-Nov-14 23:33N 39°16' W 076°34'0 0.0
2014-Nov-14 22:33N 39°16' W 076°34'0 0.0
2014-Nov-14 21:33N 39°16' W 076°34'0 0.0
2014-Nov-14 20:33N 39°16' W 076°34'0 0.0
2014-Nov-14 19:33N 39°16' W 076°34'0 0.0
2014-Nov-14 18:33N 39°16' W 076°34'0 0.0
2014-Nov-14 17:33N 39°16' W 076°34'0 0.0
2014-Nov-14 16:33N 39°16' W 076°34'0 0.0
2014-Nov-14 15:33N 39°16' W 076°34'0 0.0
2014-Nov-14 14:33N 39°16' W 076°34'0 0.0
2014-Nov-14 12:33N 39°16' W 076°34'1 1.4
2014-Nov-14 11:34N 39°14' W 076°33'0 0.0
2014-Nov-14 10:33N 39°14' W 076°33'0 0.0
2014-Nov-14 09:33N 39°14' W 076°33'0 0.0
2014-Nov-14 08:33N 39°14' W 076°33'0 0.0
2014-Nov-14 07:33N 39°14' W 076°33'0 0.1
2014-Nov-14 06:33N 39°14' W 076°33'0 0.0
2014-Nov-14 05:33N 39°14' W 076°33'0 0.0
2014-Nov-14 04:33N 39°14' W 076°33'0 0.0
2014-Nov-14 03:33N 39°14' W 076°33'0 0.0
2014-Nov-14 02:33N 39°15' W 076°33'0 0.1
2014-Nov-14 01:33N 39°14' W 076°33'0 0.0
2014-Nov-14 00:33N 39°14' W 076°33'0 0.0
2014-Nov-13 23:27N 39°14' W 076°33'0 0.0
2014-Nov-13 22:33N 39°14' W 076°33'5 4.6
2014-Nov-13 21:33N 39°11' W 076°28'8 8.4
2014-Nov-13 20:33N 39°04' W 076°24'6 6.2
2014-Nov-13 19:33N 38°58' W 076°24'0 0.0
2014-Nov-13 18:33N 38°58' W 076°24'0 0.0
2014-Nov-13 17:33N 38°58' W 076°24'0 0.0
2014-Nov-13 16:33N 38°58' W 076°24'0 0.0
2014-Nov-13 15:33N 38°58' W 076°24'0 0.0
2014-Nov-13 14:33N 38°58' W 076°24'0 0.0
2014-Nov-13 13:33N 38°58' W 076°24'0 0.0
2014-Nov-13 12:33N 38°58' W 076°24'0 0.0
2014-Nov-13 11:33N 38°58' W 076°24'0 0.0
2014-Nov-13 10:33N 38°58' W 076°24'0 0.0
2014-Nov-13 09:33N 38°58' W 076°24'8 7.9
2014-Nov-13 08:33N 39°05' W 076°19'1211.9
2014-Nov-13 07:33N 39°16' W 076°14'2311.5
2014-Nov-13 05:31N 39°32' W 075°52'7 7.2
2014-Nov-13 04:33N 39°33' W 075°43'8 7.9
2014-Nov-13 03:33N 39°33' W 075°33'9 9.1
2014-Nov-13 02:33N 39°24' W 075°30'1010.3
2014-Nov-13 01:33N 39°17' W 075°21'57 6.4
2014-Nov-12 16:32N 38°44' W 074°20'0 0.0
2014-Nov-12 15:33N 38°44' W 074°20'0 0.0
2014-Nov-12 14:33N 38°44' W 074°20'0 0.0
2014-Nov-12 13:33N 38°44' W 074°20'0 0.0
2014-Nov-12 12:33N 38°44' W 074°20'0 0.0
2014-Nov-12 11:33N 38°44' W 074°20'0 0.0
2014-Nov-12 10:33N 38°44' W 074°20'0 0.1
2014-Nov-12 09:33N 38°44' W 074°20'0 0.0
2014-Nov-12 08:33N 38°44' W 074°20'5 5.2
2014-Nov-12 07:33N 38°45' W 074°27'1111.3
2014-Nov-12 06:33N 38°46' W 074°41'10 9.9
2014-Nov-12 05:33N 38°46' W 074°54'9 8.5
2014-Nov-12 04:33N 38°49' W 075°04'1010.2
2014-Nov-12 03:34N 38°59' W 075°08'1312.1
2014-Nov-12 02:27N 39°10' W 075°16'1213.5
2014-Nov-12 01:33N 39°20' W 075°25'1312.9
2014-Nov-12 00:33N 39°32' W 075°33'8 7.8
2014-Nov-11 23:33N 39°33' W 075°43'7 7.3
2014-Nov-11 22:33N 39°31' W 075°52'2410.3
2014-Nov-11 20:14N 39°14' W 076°14'710.9
2014-Nov-11 19:33N 39°09' W 076°20'1211.7
2014-Nov-11 18:33N 39°15' W 076°34'1 0.9
2014-Nov-11 17:33N 39°16' W 076°33'0 0.0
2014-Nov-11 16:33N 39°16' W 076°33'0 0.0
2014-Nov-11 15:33N 39°16' W 076°33'0 0.0
2014-Nov-11 14:33N 39°16' W 076°33'0 0.0
2014-Nov-11 13:33N 39°16' W 076°33'0 0.0
2014-Nov-11 12:33N 39°16' W 076°33'0 0.0
2014-Nov-11 11:33N 39°16' W 076°33'0 0.0
2014-Nov-11 10:33N 39°16' W 076°33'0 0.0
2014-Nov-11 09:33N 39°16' W 076°33'0 0.0
2014-Nov-11 08:33N 39°16' W 076°33'0 0.0
2014-Nov-11 07:33N 39°16' W 076°33'0 0.0
2014-Nov-11 06:33N 39°16' W 076°33'0 0.0
2014-Nov-11 05:33N 39°16' W 076°33'0 0.0
2014-Nov-11 04:33N 39°16' W 076°33'0 0.0
2014-Nov-11 03:33N 39°16' W 076°33'0 0.0
2014-Nov-11 02:33N 39°16' W 076°33'0 0.0
2014-Nov-11 01:33N 39°16' W 076°33'0 0.0
2014-Nov-11 00:33N 39°16' W 076°33'0 0.0
2014-Nov-10 23:33N 39°16' W 076°33'0 0.0
2014-Nov-10 22:33N 39°16' W 076°33'0 0.0
2014-Nov-10 21:33N 39°16' W 076°33'0 0.0
2014-Nov-10 20:33N 39°16' W 076°33'0 0.0
2014-Nov-10 19:33N 39°16' W 076°33'0 0.0
2014-Nov-10 18:33N 39°16' W 076°33'0 0.0
2014-Nov-10 17:33N 39°16' W 076°33'0 0.0
2014-Nov-10 16:33N 39°16' W 076°33'0 0.0
2014-Nov-10 15:33N 39°16' W 076°33'0 0.0
2014-Nov-10 14:33N 39°16' W 076°33'0 0.0
2014-Nov-10 13:33N 39°16' W 076°33'0 0.0
2014-Nov-10 12:33N 39°16' W 076°33'0 0.0
2014-Nov-10 11:33N 39°16' W 076°33'0 0.0
2014-Nov-10 10:33N 39°16' W 076°33'0 0.0
2014-Nov-10 09:33N 39°16' W 076°33'0 0.0
2014-Nov-10 08:33N 39°16' W 076°33'0 0.0
2014-Nov-10 07:33N 39°16' W 076°33'0 0.0
2014-Nov-10 06:33N 39°16' W 076°33'0 0.0
2014-Nov-10 05:33N 39°16' W 076°33'0 0.0
2014-Nov-10 04:33N 39°16' W 076°33'0 0.0
2014-Nov-10 03:33N 39°16' W 076°33'0 0.0
2014-Nov-10 02:33N 39°16' W 076°33'0 0.0
2014-Nov-10 01:33N 39°16' W 076°33'0 0.0
2014-Nov-10 00:33N 39°16' W 076°33'0 0.0
2014-Nov-09 23:33N 39°16' W 076°33'0 0.0
2014-Nov-09 22:33N 39°16' W 076°33'0 0.0
2014-Nov-09 21:33N 39°16' W 076°33'0 0.0
2014-Nov-09 20:33N 39°16' W 076°33'0 0.0
2014-Nov-09 19:33N 39°16' W 076°33'0 0.0
2014-Nov-09 18:33N 39°16' W 076°33'0 0.0
2014-Nov-09 17:33N 39°16' W 076°33'0 0.0
2014-Nov-09 16:33N 39°16' W 076°33'0 0.0
2014-Nov-09 15:33N 39°16' W 076°33'0 0.0
2014-Nov-09 14:33N 39°16' W 076°33'0 0.0
2014-Nov-09 13:33N 39°16' W 076°33'1 1.4
2014-Nov-09 12:33N 39°14' W 076°33'8 7.7
2014-Nov-09 11:33N 39°10' W 076°25'1111.3
2014-Nov-09 10:33N 38°58' W 076°23'1212.0
2014-Nov-09 09:33N 38°46' W 076°26'3811.2
2014-Nov-09 06:11N 38°10' W 076°14'1112.1
2014-Nov-09 05:15N 37°59' W 076°12'183 7.6
2014-Nov-08 05:08N 38°40' W 072°25'  
Track history (hours):
 
Tides and Currents Weather Stations Pressure Air Temp Water Temp Dewpoint Dewpoint Depression Visibility Wind Speed Wind Dir Waves Ship Positions

Barkald

Last reported at 2014-Nov-16 20:12 UTC. Time now 2014-Nov-24 15:18 UTC.
Position N 38°30' W 071°27'.

Length 189 m; draft 6.6 m.

MMSI: 538002409.

Date/timePositionNaut miles runAvg speedWind from/ knotsBaromVisibWave heightAir tempDewpointWater temp
2014-Nov-16 20:12N 38°30' W 071°27'225 8.7
2014-Nov-15 18:19N 37°53' W 076°09'911.7
2014-Nov-15 17:33N 38°02' W 076°13'4711.7
2014-Nov-15 13:33N 38°47' W 076°25'1212.2
2014-Nov-15 12:33N 38°59' W 076°23'1110.8
2014-Nov-15 11:33N 39°10' W 076°25'9 8.5
2014-Nov-15 10:33N 39°15' W 076°34'0 0.2
2014-Nov-15 09:33N 39°16' W 076°34'0 0.0
2014-Nov-15 08:33N 39°16' W 076°34'0 0.0
2014-Nov-15 07:33N 39°16' W 076°34'0 0.0
2014-Nov-15 06:33N 39°16' W 076°34'0 0.0
2014-Nov-15 05:33N 39°16' W 076°34'0 0.0
2014-Nov-15 04:33N 39°16' W 076°34'0 0.0
2014-Nov-15 03:33N 39°16' W 076°34'0 0.0
2014-Nov-15 02:30N 39°16' W 076°34'0 0.0
2014-Nov-15 01:33N 39°16' W 076°34'0 0.0
2014-Nov-15 00:34N 39°16' W 076°34'0 0.0
2014-Nov-14 23:33N 39°16' W 076°34'0 0.0
2014-Nov-14 22:33N 39°16' W 076°34'0 0.0
2014-Nov-14 21:33N 39°16' W 076°34'0 0.0
2014-Nov-14 20:33N 39°16' W 076°34'0 0.0
2014-Nov-14 19:33N 39°16' W 076°34'0 0.0
2014-Nov-14 18:33N 39°16' W 076°34'0 0.0
2014-Nov-14 17:33N 39°16' W 076°34'0 0.0
2014-Nov-14 16:33N 39°16' W 076°34'0 0.0
2014-Nov-14 15:33N 39°16' W 076°34'0 0.0
2014-Nov-14 14:33N 39°16' W 076°34'0 0.0
2014-Nov-14 12:33N 39°16' W 076°34'1 1.4
2014-Nov-14 11:34N 39°14' W 076°33'0 0.0
2014-Nov-14 10:33N 39°14' W 076°33'0 0.0
2014-Nov-14 09:33N 39°14' W 076°33'0 0.0
2014-Nov-14 08:33N 39°14' W 076°33'0 0.0
2014-Nov-14 07:33N 39°14' W 076°33'0 0.1
2014-Nov-14 06:33N 39°14' W 076°33'0 0.0
2014-Nov-14 05:33N 39°14' W 076°33'0 0.0
2014-Nov-14 04:33N 39°14' W 076°33'0 0.0
2014-Nov-14 03:33N 39°14' W 076°33'0 0.0
2014-Nov-14 02:33N 39°15' W 076°33'0 0.1
2014-Nov-14 01:33N 39°14' W 076°33'0 0.0
2014-Nov-14 00:33N 39°14' W 076°33'0 0.0
2014-Nov-13 23:27N 39°14' W 076°33'0 0.0
2014-Nov-13 22:33N 39°14' W 076°33'5 4.6
2014-Nov-13 21:33N 39°11' W 076°28'8 8.4
2014-Nov-13 20:33N 39°04' W 076°24'6 6.2
2014-Nov-13 19:33N 38°58' W 076°24'0 0.0
2014-Nov-13 18:33N 38°58' W 076°24'0 0.0
2014-Nov-13 17:33N 38°58' W 076°24'0 0.0
2014-Nov-13 16:33N 38°58' W 076°24'0 0.0
2014-Nov-13 15:33N 38°58' W 076°24'0 0.0
2014-Nov-13 14:33N 38°58' W 076°24'0 0.0
2014-Nov-13 13:33N 38°58' W 076°24'0 0.0
2014-Nov-13 12:33N 38°58' W 076°24'0 0.0
2014-Nov-13 11:33N 38°58' W 076°24'0 0.0
2014-Nov-13 10:33N 38°58' W 076°24'0 0.0
2014-Nov-13 09:33N 38°58' W 076°24'8 7.9
2014-Nov-13 08:33N 39°05' W 076°19'1211.9
2014-Nov-13 07:33N 39°16' W 076°14'2311.5
2014-Nov-13 05:31N 39°32' W 075°52'7 7.2
2014-Nov-13 04:33N 39°33' W 075°43'8 7.9
2014-Nov-13 03:33N 39°33' W 075°33'9 9.1
2014-Nov-13 02:33N 39°24' W 075°30'1010.3
2014-Nov-13 01:33N 39°17' W 075°21'57 6.4
2014-Nov-12 16:32N 38°44' W 074°20'0 0.0
2014-Nov-12 15:33N 38°44' W 074°20'0 0.0
2014-Nov-12 14:33N 38°44' W 074°20'0 0.0
2014-Nov-12 13:33N 38°44' W 074°20'0 0.0
2014-Nov-12 12:33N 38°44' W 074°20'0 0.0
2014-Nov-12 11:33N 38°44' W 074°20'0 0.0
2014-Nov-12 10:33N 38°44' W 074°20'0 0.1
2014-Nov-12 09:33N 38°44' W 074°20'0 0.0
2014-Nov-12 08:33N 38°44' W 074°20'5 5.2
2014-Nov-12 07:33N 38°45' W 074°27'1111.3
2014-Nov-12 06:33N 38°46' W 074°41'10 9.9
2014-Nov-12 05:33N 38°46' W 074°54'9 8.5
2014-Nov-12 04:33N 38°49' W 075°04'1010.2
2014-Nov-12 03:34N 38°59' W 075°08'1312.1
2014-Nov-12 02:27N 39°10' W 075°16'1213.5
2014-Nov-12 01:33N 39°20' W 075°25'1312.9
2014-Nov-12 00:33N 39°32' W 075°33'8 7.8
2014-Nov-11 23:33N 39°33' W 075°43'7 7.3
2014-Nov-11 22:33N 39°31' W 075°52'2410.3
2014-Nov-11 20:14N 39°14' W 076°14'710.9
2014-Nov-11 19:33N 39°09' W 076°20'1211.7
2014-Nov-11 18:33N 39°15' W 076°34'1 0.9
2014-Nov-11 17:33N 39°16' W 076°33'0 0.0
2014-Nov-11 16:33N 39°16' W 076°33'0 0.0
2014-Nov-11 15:33N 39°16' W 076°33'0 0.0
2014-Nov-11 14:33N 39°16' W 076°33'0 0.0
2014-Nov-11 13:33N 39°16' W 076°33'0 0.0
2014-Nov-11 12:33N 39°16' W 076°33'0 0.0
2014-Nov-11 11:33N 39°16' W 076°33'0 0.0
2014-Nov-11 10:33N 39°16' W 076°33'0 0.0
2014-Nov-11 09:33N 39°16' W 076°33'0 0.0
2014-Nov-11 08:33N 39°16' W 076°33'0 0.0
2014-Nov-11 07:33N 39°16' W 076°33'0 0.0
2014-Nov-11 06:33N 39°16' W 076°33'0 0.0
2014-Nov-11 05:33N 39°16' W 076°33'0 0.0
2014-Nov-11 04:33N 39°16' W 076°33'0 0.0
2014-Nov-11 03:33N 39°16' W 076°33'0 0.0
2014-Nov-11 02:33N 39°16' W 076°33'0 0.0
2014-Nov-11 01:33N 39°16' W 076°33'0 0.0
2014-Nov-11 00:33N 39°16' W 076°33'0 0.0
2014-Nov-10 23:33N 39°16' W 076°33'0 0.0
2014-Nov-10 22:33N 39°16' W 076°33'0 0.0
2014-Nov-10 21:33N 39°16' W 076°33'0 0.0
2014-Nov-10 20:33N 39°16' W 076°33'0 0.0
2014-Nov-10 19:33N 39°16' W 076°33'0 0.0
2014-Nov-10 18:33N 39°16' W 076°33'0 0.0
2014-Nov-10 17:33N 39°16' W 076°33'0 0.0
2014-Nov-10 16:33N 39°16' W 076°33'0 0.0
2014-Nov-10 15:33N 39°16' W 076°33'0 0.0
2014-Nov-10 14:33N 39°16' W 076°33'0 0.0
2014-Nov-10 13:33N 39°16' W 076°33'0 0.0
2014-Nov-10 12:33N 39°16' W 076°33'0 0.0
2014-Nov-10 11:33N 39°16' W 076°33'0 0.0
2014-Nov-10 10:33N 39°16' W 076°33'0 0.0
2014-Nov-10 09:33N 39°16' W 076°33'0 0.0
2014-Nov-10 08:33N 39°16' W 076°33'0 0.0
2014-Nov-10 07:33N 39°16' W 076°33'0 0.0
2014-Nov-10 06:33N 39°16' W 076°33'0 0.0
2014-Nov-10 05:33N 39°16' W 076°33'0 0.0
2014-Nov-10 04:33N 39°16' W 076°33'0 0.0
2014-Nov-10 03:33N 39°16' W 076°33'0 0.0
2014-Nov-10 02:33N 39°16' W 076°33'0 0.0
2014-Nov-10 01:33N 39°16' W 076°33'0 0.0
2014-Nov-10 00:33N 39°16' W 076°33'0 0.0
2014-Nov-09 23:33N 39°16' W 076°33'0 0.0
2014-Nov-09 22:33N 39°16' W 076°33'0 0.0
2014-Nov-09 21:33N 39°16' W 076°33'0 0.0
2014-Nov-09 20:33N 39°16' W 076°33'0 0.0
2014-Nov-09 19:33N 39°16' W 076°33'0 0.0
2014-Nov-09 18:33N 39°16' W 076°33'0 0.0
2014-Nov-09 17:33N 39°16' W 076°33'0 0.0
2014-Nov-09 16:33N 39°16' W 076°33'0 0.0
2014-Nov-09 15:33N 39°16' W 076°33'0 0.0
2014-Nov-09 14:33N 39°16' W 076°33'0 0.0
2014-Nov-09 13:33N 39°16' W 076°33'1 1.4
2014-Nov-09 12:33N 39°14' W 076°33'8 7.7
2014-Nov-09 11:33N 39°10' W 076°25'1111.3
2014-Nov-09 10:33N 38°58' W 076°23'1212.0
2014-Nov-09 09:33N 38°46' W 076°26'3811.2
2014-Nov-09 06:11N 38°10' W 076°14'1112.1
2014-Nov-09 05:15N 37°59' W 076°12'183 7.6
2014-Nov-08 05:08N 38°40' W 072°25'  

Dump ship's entire track history